ADDS TAF Board (Experimental) INFO Settings
IDs: Format: Expanded Condensed

KATL - Atlanta/Hartsfield-J, GA, US

Issued at 1353 UTC 28 Jun 2016
Updated at: 1500 UTC 28 Jun 2016
Time1452Z 28/15Z 28/16Z 28/17Z 28/18Z 28/19Z 28/20Z 28/21Z 28/22Z 28/23Z 29/00Z 29/01Z 29/02Z 29/03Z
Type OBS PRVL PRVL
  [TEMP]  
PRVL
  [TEMP]  
PRVL
  [TEMP]  
PRVL
  [TEMP]  
PRVL PRVL PRVL PRVL PRVL PRVL PRVL PRVL
VIS 10 >6 >6
  [5]  
>6
  [5]  
>6
  [5]  
>6
  [5]  
>6 >6 >6 >6 >6 >6 >6 >6
CIG -- -- 40
  [30]  
40
  [30]  
40
  [30]  
40
  [30]  
120 120 120 120 120 120 -- --
Cover SCT SCT BKN
  [BKN]  
BKN
  [BKN]  
BKN
  [BKN]  
BKN
  [BKN]  
BKN BKN BKN BKN BKN BKN SCT SCT
FltCat VFR VFR VFR
  [MVFR]  
VFR
  [MVFR]  
VFR
  [MVFR]  
VFR
  [MVFR]  
VFR VFR VFR VFR VFR VFR VFR VFR
WX -- -- --
  [TSRA BR]  
--
  [TSRA BR]  
--
  [TSRA BR]  
--
  [TSRA BR]  
-- -- -- -- -- -- -- --
WDir 290 320 330
[330]
330
[330]
330
[330]
330
[330]
20 20 20 20 20 20 20 20
WSpd 7 6 7
  [7]  
7
  [7]  
7
  [7]  
7
  [7]  
11 11 11 11 11 11 6 6
WGst -- -- --
  [--]  
--
  [--]  
--
  [--]  
--
  [--]  
-- -- -- -- -- -- -- --
R08/26
XWnd 2 5 6 6 6 6 10 10 10 10 10 10 6 6
XGst -- -- 0 0 0 0 -- -- -- -- -- -- -- --
HWnd -7 -4 -4 -4 -4 -4 4 4 4 4 4 4 2 2
HGst -- -- 0 0 0 0 -- -- -- -- -- -- -- --
R09/27
XWnd 2 5 6 6 6 6 10 10 10 10 10 10 6 6
XGst -- -- 0 0 0 0 -- -- -- -- -- -- -- --
HWnd -7 -4 -4 -4 -4 -4 4 4 4 4 4 4 2 2
HGst -- -- 0 0 0 0 -- -- -- -- -- -- -- --
R10/28
XWnd 2 5 6 6 6 6 10 10 10 10 10 10 6 6
XGst -- -- 0 0 0 0 -- -- -- -- -- -- -- --
HWnd -7 -4 -4 -4 -4 -4 4 4 4 4 4 4 2 2
HGst -- -- 0 0 0 0 -- -- -- -- -- -- -- --

NOTE: TEMPO conditions in [brackets]. Keep in mind TEMPO conditions might be better (lower impact) than prevailing conditions.

Raw TAF
KATL 281353Z 2814/2918 32006KT P6SM FEW015 SCT140
  FM281600 33007KT P6SM BKN040
  TEMPO 2816/2820 5SM TSRA BR BKN030CB
  FM282000 02011KT P6SM SCT040 BKN120
  FM290200 02006KT P6SM SCT060
  FM290900 33005KT P6SM SCT250


Raw METAR
KATL 281452Z 29007KT 10SM FEW030 FEW150 SCT200 29/21 A3003 RMK AO2 SLP157 T02890211 50005
KATL 281352Z 32005KT 10SM SCT018 SCT150 28/21 A3004 RMK AO2 SLP160 T02780211
KATL 281252Z 32006KT 10SM FEW016 SCT140 SCT220 26/21 A3004 RMK AO2 SLP159 T02610211 $
KATL 281152Z 00000KT 10SM FEW010 SCT140 BKN200 BKN250 24/21 A3002 RMK AO2 SLP152 T02440211 10244 20228 53006

METAR Board
Radar Display
Forecast Discussion

TAF Board Legend

Potential Impact
Threat None Slight Moderate High
Visibility (sm) ≥5.1 5.1>X≥3 3>X≥1 <1
Ceiling (100 ft) ≥30.1 30.1>X≥10 10>X≥5 <5
Wind Speed (kt) <10 10≤X<20 20≤X<30 ≥30
Wind Gust (kt) <15 15≤X<25 25≤X<35 ≥35
Weather No Wx Reported VCTS,-TS,-FZRA,SN TS,FZRA +TS,+FZRA,+SN